sensor_id;sensor_type;location;lat;lon;timestamp;P1;durP1;ratioP1;P2;durP2;ratioP2
63801;SDS011;49949;43.060;25.624;2022-12-10T00:00:40;20.40;;;5.28;;
63801;SDS011;49949;43.060;25.624;2022-12-10T00:03:06;17.67;;;5.60;;
63801;SDS011;49949;43.060;25.624;2022-12-10T00:05:34;23.13;;;4.85;;
63801;SDS011;49949;43.060;25.624;2022-12-10T00:08:01;12.70;;;4.72;;
63801;SDS011;49949;43.060;25.624;2022-12-10T00:10:26;23.33;;;5.68;;
63801;SDS011;49949;43.060;25.624;2022-12-10T00:12:52;16.05;;;5.28;;
63801;SDS011;49949;43.060;25.624;2022-12-10T00:15:18;14.27;;;4.97;;
63801;SDS011;49949;43.060;25.624;2022-12-10T00:17:43;12.55;;;5.72;;
63801;SDS011;49949;43.060;25.624;2022-12-10T00:20:09;21.08;;;4.88;;
63801;SDS011;49949;43.060;25.624;2022-12-10T00:22:35;21.63;;;5.70;;
63801;SDS011;49949;43.060;25.624;2022-12-10T00:25:01;13.52;;;5.75;;
63801;SDS011;49949;43.060;25.624;2022-12-10T00:27:26;24.92;;;6.10;;
63801;SDS011;49949;43.060;25.624;2022-12-10T00:29:52;21.17;;;5.57;;
63801;SDS011;49949;43.060;25.624;2022-12-10T00:32:18;17.77;;;4.80;;
63801;SDS011;49949;43.060;25.624;2022-12-10T00:34:43;15.70;;;4.50;;
63801;SDS011;49949;43.060;25.624;2022-12-10T00:37:09;21.60;;;5.05;;
63801;SDS011;49949;43.060;25.624;2022-12-10T00:39:35;17.55;;;4.30;;
63801;SDS011;49949;43.060;25.624;2022-12-10T00:42:01;14.75;;;3.90;;
63801;SDS011;49949;43.060;25.624;2022-12-10T00:44:27;13.35;;;4.38;;
63801;SDS011;49949;43.060;25.624;2022-12-10T00:46:53;16.48;;;4.07;;
63801;SDS011;49949;43.060;25.624;2022-12-10T00:49:18;13.25;;;4.18;;
63801;SDS011;49949;43.060;25.624;2022-12-10T00:51:48;18.02;;;3.88;;
63801;SDS011;49949;43.060;25.624;2022-12-10T00:54:13;20.88;;;4.75;;
63801;SDS011;49949;43.060;25.624;2022-12-10T00:56:39;11.88;;;3.80;;
63801;SDS011;49949;43.060;25.624;2022-12-10T00:59:05;16.15;;;4.25;;
63801;SDS011;49949;43.060;25.624;2022-12-10T01:01:35;17.75;;;4.10;;
63801;SDS011;49949;43.060;25.624;2022-12-10T01:04:04;17.92;;;4.43;;
63801;SDS011;49949;43.060;25.624;2022-12-10T01:06:43;18.65;;;4.93;;
63801;SDS011;49949;43.060;25.624;2022-12-10T01:09:12;14.18;;;5.13;;
63801;SDS011;49949;43.060;25.624;2022-12-10T01:11:41;17.33;;;5.47;;
63801;SDS011;49949;43.060;25.624;2022-12-10T01:14:12;23.13;;;5.13;;
63801;SDS011;49949;43.060;25.624;2022-12-10T01:16:40;4.75;;;2.35;;
63801;SDS011;49949;43.060;25.624;2022-12-10T01:19:05;28.27;;;5.28;;
63801;SDS011;49949;43.060;25.624;2022-12-10T01:21:31;18.13;;;5.80;;
63801;SDS011;49949;43.060;25.624;2022-12-10T01:23:58;23.65;;;6.38;;
63801;SDS011;49949;43.060;25.624;2022-12-10T01:26:24;20.92;;;5.78;;
63801;SDS011;49949;43.060;25.624;2022-12-10T01:28:52;18.35;;;5.95;;
63801;SDS011;49949;43.060;25.624;2022-12-10T01:31:20;18.08;;;5.47;;
63801;SDS011;49949;43.060;25.624;2022-12-10T01:33:48;18.77;;;6.30;;
63801;SDS011;49949;43.060;25.624;2022-12-10T01:36:15;23.25;;;7.05;;
63801;SDS011;49949;43.060;25.624;2022-12-10T01:38:45;8.68;;;2.22;;
63801;SDS011;49949;43.060;25.624;2022-12-10T01:41:19;19.20;;;4.43;;
63801;SDS011;49949;43.060;25.624;2022-12-10T01:43:51;15.50;;;5.22;;
63801;SDS011;49949;43.060;25.624;2022-12-10T01:46:27;22.50;;;5.70;;
63801;SDS011;49949;43.060;25.624;2022-12-10T01:48:58;16.63;;;5.22;;
63801;SDS011;49949;43.060;25.624;2022-12-10T01:51:25;19.75;;;5.07;;
63801;SDS011;49949;43.060;25.624;2022-12-10T01:53:53;18.77;;;5.50;;
63801;SDS011;49949;43.060;25.624;2022-12-10T01:56:19;17.98;;;4.47;;
63801;SDS011;49949;43.060;25.624;2022-12-10T01:58:46;20.27;;;5.00;;
63801;SDS011;49949;43.060;25.624;2022-12-10T02:03:52;9.73;;;4.47;;
63801;SDS011;49949;43.060;25.624;2022-12-10T02:09:31;18.95;;;5.70;;
63801;SDS011;49949;43.060;25.624;2022-12-10T02:17:26;18.77;;;5.10;;
63801;SDS011;49949;43.060;25.624;2022-12-10T02:22:35;15.13;;;3.50;;
63801;SDS011;49949;43.060;25.624;2022-12-10T02:25:07;15.95;;;4.35;;
63801;SDS011;49949;43.060;25.624;2022-12-10T02:28:19;13.30;;;4.18;;
63801;SDS011;49949;43.060;25.624;2022-12-10T02:30:29;12.77;;;4.55;;
63801;SDS011;49949;43.060;25.624;2022-12-10T02:32:56;10.70;;;2.65;;
63801;SDS011;49949;43.060;25.624;2022-12-10T02:35:24;18.20;;;5.57;;
63801;SDS011;49949;43.060;25.624;2022-12-10T02:37:56;13.20;;;3.70;;
63801;SDS011;49949;43.060;25.624;2022-12-10T02:40:29;19.40;;;4.30;;
63801;SDS011;49949;43.060;25.624;2022-12-10T02:42:57;6.57;;;2.55;;
63801;SDS011;49949;43.060;25.624;2022-12-10T02:45:25;10.10;;;3.00;;
63801;SDS011;49949;43.060;25.624;2022-12-10T02:47:54;14.98;;;3.33;;
63801;SDS011;49949;43.060;25.624;2022-12-10T02:50:22;7.53;;;2.33;;
63801;SDS011;49949;43.060;25.624;2022-12-10T02:52:49;22.75;;;4.07;;
63801;SDS011;49949;43.060;25.624;2022-12-10T02:55:14;3.50;;;1.40;;
63801;SDS011;49949;43.060;25.624;2022-12-10T03:00:34;11.02;;;2.97;;
63801;SDS011;49949;43.060;25.624;2022-12-10T03:11:22;27.08;;;5.35;;
63801;SDS011;49949;43.060;25.624;2022-12-10T03:16:22;19.23;;;6.07;;
63801;SDS011;49949;43.060;25.624;2022-12-10T03:18:50;19.38;;;7.03;;
63801;SDS011;49949;43.060;25.624;2022-12-10T03:21:20;21.67;;;8.00;;
63801;SDS011;49949;43.060;25.624;2022-12-10T03:23:47;22.65;;;8.18;;
63801;SDS011;49949;43.060;25.624;2022-12-10T03:26:15;16.23;;;8.10;;
63801;SDS011;49949;43.060;25.624;2022-12-10T03:28:43;15.20;;;7.20;;
63801;SDS011;49949;43.060;25.624;2022-12-10T03:31:14;25.65;;;7.28;;
63801;SDS011;49949;43.060;25.624;2022-12-10T03:33:42;19.45;;;7.65;;
63801;SDS011;49949;43.060;25.624;2022-12-10T03:36:08;23.05;;;6.88;;
63801;SDS011;49949;43.060;25.624;2022-12-10T03:38:35;15.82;;;7.40;;
63801;SDS011;49949;43.060;25.624;2022-12-10T03:41:01;18.20;;;7.47;;
63801;SDS011;49949;43.060;25.624;2022-12-10T03:43:27;17.58;;;7.53;;
63801;SDS011;49949;43.060;25.624;2022-12-10T03:45:53;22.20;;;6.95;;
63801;SDS011;49949;43.060;25.624;2022-12-10T03:48:18;21.05;;;7.03;;
63801;SDS011;49949;43.060;25.624;2022-12-10T03:50:44;19.77;;;7.10;;
63801;SDS011;49949;43.060;25.624;2022-12-10T03:53:10;20.90;;;6.90;;
63801;SDS011;49949;43.060;25.624;2022-12-10T03:55:35;20.80;;;7.18;;
63801;SDS011;49949;43.060;25.624;2022-12-10T03:58:01;18.83;;;8.05;;
63801;SDS011;49949;43.060;25.624;2022-12-10T04:00:27;20.02;;;6.90;;
63801;SDS011;49949;43.060;25.624;2022-12-10T04:02:53;28.95;;;8.52;;
63801;SDS011;49949;43.060;25.624;2022-12-10T04:05:18;48.53;;;8.02;;
63801;SDS011;49949;43.060;25.624;2022-12-10T04:07:44;101.75;;;11.40;;
63801;SDS011;49949;43.060;25.624;2022-12-10T04:10:10;77.93;;;14.63;;
63801;SDS011;49949;43.060;25.624;2022-12-10T04:12:35;60.47;;;11.43;;
63801;SDS011;49949;43.060;25.624;2022-12-10T04:15:01;39.80;;;10.77;;
63801;SDS011;49949;43.060;25.624;2022-12-10T04:17:45;24.40;;;7.38;;
63801;SDS011;49949;43.060;25.624;2022-12-10T04:20:11;13.77;;;4.88;;
63801;SDS011;49949;43.060;25.624;2022-12-10T04:22:55;31.30;;;6.95;;
63801;SDS011;49949;43.060;25.624;2022-12-10T04:25:39;44.85;;;10.18;;
63801;SDS011;49949;43.060;25.624;2022-12-10T04:28:23;44.53;;;12.60;;
63801;SDS011;49949;43.060;25.624;2022-12-10T04:30:49;48.72;;;14.80;;
63801;SDS011;49949;43.060;25.624;2022-12-10T04:33:15;64.68;;;18.20;;
63801;SDS011;49949;43.060;25.624;2022-12-10T04:35:41;35.70;;;14.35;;
63801;SDS011;49949;43.060;25.624;2022-12-10T04:38:06;57.03;;;21.63;;
63801;SDS011;49949;43.060;25.624;2022-12-10T04:40:32;65.05;;;27.13;;
63801;SDS011;49949;43.060;25.624;2022-12-10T04:42:58;50.47;;;22.83;;
63801;SDS011;49949;43.060;25.624;2022-12-10T04:45:23;45.78;;;17.50;;
63801;SDS011;49949;43.060;25.624;2022-12-10T04:47:49;52.65;;;14.00;;
63801;SDS011;49949;43.060;25.624;2022-12-10T04:50:15;30.80;;;10.90;;
63801;SDS011;49949;43.060;25.624;2022-12-10T04:52:40;21.98;;;9.55;;
63801;SDS011;49949;43.060;25.624;2022-12-10T04:55:06;33.80;;;14.82;;
63801;SDS011;49949;43.060;25.624;2022-12-10T04:57:32;35.75;;;14.40;;
63801;SDS011;49949;43.060;25.624;2022-12-10T04:59:58;31.63;;;13.75;;
63801;SDS011;49949;43.060;25.624;2022-12-10T05:02:23;23.25;;;11.20;;
63801;SDS011;49949;43.060;25.624;2022-12-10T05:04:49;26.00;;;10.93;;
63801;SDS011;49949;43.060;25.624;2022-12-10T05:07:15;24.98;;;10.60;;
63801;SDS011;49949;43.060;25.624;2022-12-10T05:09:40;19.90;;;9.18;;
63801;SDS011;49949;43.060;25.624;2022-12-10T05:12:06;21.52;;;8.95;;
63801;SDS011;49949;43.060;25.624;2022-12-10T05:14:32;18.05;;;8.90;;
63801;SDS011;49949;43.060;25.624;2022-12-10T05:16:57;32.20;;;9.90;;
63801;SDS011;49949;43.060;25.624;2022-12-10T05:19:23;42.50;;;8.73;;
63801;SDS011;49949;43.060;25.624;2022-12-10T05:21:52;50.75;;;8.73;;
63801;SDS011;49949;43.060;25.624;2022-12-10T05:24:36;60.95;;;9.30;;
63801;SDS011;49949;43.060;25.624;2022-12-10T05:27:02;39.33;;;8.98;;
63801;SDS011;49949;43.060;25.624;2022-12-10T05:29:28;26.55;;;8.07;;
63801;SDS011;49949;43.060;25.624;2022-12-10T05:31:54;24.45;;;8.13;;
63801;SDS011;49949;43.060;25.624;2022-12-10T05:34:19;31.73;;;8.57;;
63801;SDS011;49949;43.060;25.624;2022-12-10T05:36:45;35.03;;;13.02;;
63801;SDS011;49949;43.060;25.624;2022-12-10T05:39:11;29.48;;;10.90;;
63801;SDS011;49949;43.060;25.624;2022-12-10T05:41:37;28.20;;;11.15;;
63801;SDS011;49949;43.060;25.624;2022-12-10T05:44:04;36.28;;;15.05;;
63801;SDS011;49949;43.060;25.624;2022-12-10T05:46:31;33.78;;;13.32;;
63801;SDS011;49949;43.060;25.624;2022-12-10T05:48:59;27.35;;;12.63;;
63801;SDS011;49949;43.060;25.624;2022-12-10T05:51:27;25.67;;;9.27;;
63801;SDS011;49949;43.060;25.624;2022-12-10T05:53:55;22.05;;;8.13;;
63801;SDS011;49949;43.060;25.624;2022-12-10T05:56:23;23.95;;;11.30;;
63801;SDS011;49949;43.060;25.624;2022-12-10T05:58:52;22.63;;;10.75;;
63801;SDS011;49949;43.060;25.624;2022-12-10T06:03:48;21.60;;;10.20;;
63801;SDS011;49949;43.060;25.624;2022-12-10T06:06:24;30.60;;;9.82;;
63801;SDS011;49949;43.060;25.624;2022-12-10T06:08:54;16.48;;;8.15;;
63801;SDS011;49949;43.060;25.624;2022-12-10T06:11:20;22.17;;;8.25;;
63801;SDS011;49949;43.060;25.624;2022-12-10T06:13:46;18.77;;;7.05;;
63801;SDS011;49949;43.060;25.624;2022-12-10T06:16:13;27.75;;;8.45;;
63801;SDS011;49949;43.060;25.624;2022-12-10T06:18:39;29.40;;;8.95;;
63801;SDS011;49949;43.060;25.624;2022-12-10T06:21:05;21.80;;;9.05;;
63801;SDS011;49949;43.060;25.624;2022-12-10T06:23:36;30.27;;;10.02;;
63801;SDS011;49949;43.060;25.624;2022-12-10T06:26:09;21.42;;;10.05;;
63801;SDS011;49949;43.060;25.624;2022-12-10T06:28:39;21.85;;;9.60;;
63801;SDS011;49949;43.060;25.624;2022-12-10T06:31:05;31.48;;;12.48;;
63801;SDS011;49949;43.060;25.624;2022-12-10T06:33:31;25.30;;;11.32;;
63801;SDS011;49949;43.060;25.624;2022-12-10T06:35:57;24.35;;;10.60;;
63801;SDS011;49949;43.060;25.624;2022-12-10T06:38:23;33.60;;;12.55;;
63801;SDS011;49949;43.060;25.624;2022-12-10T06:40:49;24.77;;;12.15;;
63801;SDS011;49949;43.060;25.624;2022-12-10T06:43:14;35.90;;;12.23;;
63801;SDS011;49949;43.060;25.624;2022-12-10T06:45:40;28.88;;;11.82;;
63801;SDS011;49949;43.060;25.624;2022-12-10T06:48:07;35.25;;;11.57;;
63801;SDS011;49949;43.060;25.624;2022-12-10T06:50:34;23.95;;;9.85;;
63801;SDS011;49949;43.060;25.624;2022-12-10T06:53:00;30.90;;;10.02;;
63801;SDS011;49949;43.060;25.624;2022-12-10T06:55:26;29.75;;;10.52;;
63801;SDS011;49949;43.060;25.624;2022-12-10T06:57:52;27.15;;;10.50;;
63801;SDS011;49949;43.060;25.624;2022-12-10T07:00:19;26.95;;;11.50;;
63801;SDS011;49949;43.060;25.624;2022-12-10T07:02:45;25.52;;;9.65;;
63801;SDS011;49949;43.060;25.624;2022-12-10T07:05:11;25.13;;;9.85;;
63801;SDS011;49949;43.060;25.624;2022-12-10T07:07:37;23.48;;;9.90;;
63801;SDS011;49949;43.060;25.624;2022-12-10T07:10:03;24.27;;;10.32;;
63801;SDS011;49949;43.060;25.624;2022-12-10T07:12:29;23.55;;;10.68;;
63801;SDS011;49949;43.060;25.624;2022-12-10T07:14:55;29.00;;;9.38;;
63801;SDS011;49949;43.060;25.624;2022-12-10T07:17:21;23.92;;;9.77;;
63801;SDS011;49949;43.060;25.624;2022-12-10T07:19:46;31.75;;;9.13;;
63801;SDS011;49949;43.060;25.624;2022-12-10T07:22:12;34.30;;;9.13;;
63801;SDS011;49949;43.060;25.624;2022-12-10T07:24:38;44.95;;;10.07;;
63801;SDS011;49949;43.060;25.624;2022-12-10T07:27:04;25.42;;;10.02;;
63801;SDS011;49949;43.060;25.624;2022-12-10T07:29:31;35.13;;;8.48;;
63801;SDS011;49949;43.060;25.624;2022-12-10T07:31:56;22.80;;;8.80;;
63801;SDS011;49949;43.060;25.624;2022-12-10T07:34:22;28.77;;;9.00;;
63801;SDS011;49949;43.060;25.624;2022-12-10T07:36:48;20.10;;;8.45;;
63801;SDS011;49949;43.060;25.624;2022-12-10T07:39:14;37.58;;;11.15;;
63801;SDS011;49949;43.060;25.624;2022-12-10T07:41:51;33.42;;;9.48;;
63801;SDS011;49949;43.060;25.624;2022-12-10T07:44:19;30.77;;;8.73;;
63801;SDS011;49949;43.060;25.624;2022-12-10T07:46:46;28.25;;;9.05;;
63801;SDS011;49949;43.060;25.624;2022-12-10T07:49:13;28.17;;;10.48;;
63801;SDS011;49949;43.060;25.624;2022-12-10T07:51:39;34.53;;;10.48;;
63801;SDS011;49949;43.060;25.624;2022-12-10T07:54:05;28.08;;;9.98;;
63801;SDS011;49949;43.060;25.624;2022-12-10T07:56:30;20.05;;;9.57;;
63801;SDS011;49949;43.060;25.624;2022-12-10T07:58:56;26.15;;;10.38;;
63801;SDS011;49949;43.060;25.624;2022-12-10T08:01:25;33.90;;;9.68;;
63801;SDS011;49949;43.060;25.624;2022-12-10T08:03:51;25.20;;;9.23;;
63801;SDS011;49949;43.060;25.624;2022-12-10T08:06:19;31.63;;;9.38;;
63801;SDS011;49949;43.060;25.624;2022-12-10T08:08:46;30.50;;;9.32;;
63801;SDS011;49949;43.060;25.624;2022-12-10T08:11:13;20.23;;;8.93;;
63801;SDS011;49949;43.060;25.624;2022-12-10T08:13:40;20.50;;;8.82;;
63801;SDS011;49949;43.060;25.624;2022-12-10T08:16:10;27.08;;;9.13;;
63801;SDS011;49949;43.060;25.624;2022-12-10T08:18:38;18.98;;;9.10;;
63801;SDS011;49949;43.060;25.624;2022-12-10T08:21:14;27.70;;;10.18;;
63801;SDS011;49949;43.060;25.624;2022-12-10T08:23:42;23.58;;;9.50;;
63801;SDS011;49949;43.060;25.624;2022-12-10T08:26:10;22.15;;;9.48;;
63801;SDS011;49949;43.060;25.624;2022-12-10T08:28:47;26.60;;;9.25;;
63801;SDS011;49949;43.060;25.624;2022-12-10T08:31:13;16.58;;;8.80;;
63801;SDS011;49949;43.060;25.624;2022-12-10T08:33:40;23.70;;;9.02;;
63801;SDS011;49949;43.060;25.624;2022-12-10T08:36:07;17.85;;;7.97;;
63801;SDS011;49949;43.060;25.624;2022-12-10T08:38:34;16.38;;;7.22;;
63801;SDS011;49949;43.060;25.624;2022-12-10T08:41:05;16.75;;;6.28;;
63801;SDS011;49949;43.060;25.624;2022-12-10T08:43:32;12.18;;;4.70;;
63801;SDS011;49949;43.060;25.624;2022-12-10T08:45:58;14.77;;;3.40;;
63801;SDS011;49949;43.060;25.624;2022-12-10T08:48:24;11.05;;;3.80;;
63801;SDS011;49949;43.060;25.624;2022-12-10T08:50:50;9.70;;;3.47;;
63801;SDS011;49949;43.060;25.624;2022-12-10T08:53:16;5.70;;;2.53;;
63801;SDS011;49949;43.060;25.624;2022-12-10T08:55:41;18.60;;;4.60;;
63801;SDS011;49949;43.060;25.624;2022-12-10T08:58:07;9.30;;;3.90;;
63801;SDS011;49949;43.060;25.624;2022-12-10T09:00:35;13.68;;;3.95;;
63801;SDS011;49949;43.060;25.624;2022-12-10T09:03:01;10.65;;;3.05;;
63801;SDS011;49949;43.060;25.624;2022-12-10T09:05:26;12.02;;;3.25;;
63801;SDS011;49949;43.060;25.624;2022-12-10T09:07:52;12.52;;;2.85;;
63801;SDS011;49949;43.060;25.624;2022-12-10T09:10:18;6.28;;;2.38;;
63801;SDS011;49949;43.060;25.624;2022-12-10T09:12:43;5.10;;;2.50;;
63801;SDS011;49949;43.060;25.624;2022-12-10T09:15:09;6.93;;;2.88;;
63801;SDS011;49949;43.060;25.624;2022-12-10T09:17:36;7.50;;;2.70;;
63801;SDS011;49949;43.060;25.624;2022-12-10T09:20:03;12.27;;;3.22;;
63801;SDS011;49949;43.060;25.624;2022-12-10T09:22:30;6.65;;;2.38;;
63801;SDS011;49949;43.060;25.624;2022-12-10T09:24:55;8.15;;;2.25;;
63801;SDS011;49949;43.060;25.624;2022-12-10T09:27:21;9.98;;;2.88;;
63801;SDS011;49949;43.060;25.624;2022-12-10T09:29:47;8.30;;;3.15;;
63801;SDS011;49949;43.060;25.624;2022-12-10T09:32:13;7.03;;;2.58;;
63801;SDS011;49949;43.060;25.624;2022-12-10T09:34:38;6.80;;;2.42;;
63801;SDS011;49949;43.060;25.624;2022-12-10T09:37:04;11.60;;;2.35;;
63801;SDS011;49949;43.060;25.624;2022-12-10T09:39:30;6.72;;;2.47;;
63801;SDS011;49949;43.060;25.624;2022-12-10T09:42:14;6.07;;;3.00;;
63801;SDS011;49949;43.060;25.624;2022-12-10T09:45:05;5.15;;;2.15;;
63801;SDS011;49949;43.060;25.624;2022-12-10T09:47:57;8.30;;;2.20;;
63801;SDS011;49949;43.060;25.624;2022-12-10T09:50:42;11.10;;;2.00;;
63801;SDS011;49949;43.060;25.624;2022-12-10T09:53:16;4.32;;;1.95;;
63801;SDS011;49949;43.060;25.624;2022-12-10T09:55:45;8.40;;;2.15;;
63801;SDS011;49949;43.060;25.624;2022-12-10T09:58:30;6.25;;;2.13;;
63801;SDS011;49949;43.060;25.624;2022-12-10T10:01:00;11.65;;;1.85;;
63801;SDS011;49949;43.060;25.624;2022-12-10T10:03:28;5.10;;;2.35;;
63801;SDS011;49949;43.060;25.624;2022-12-10T10:05:59;14.17;;;1.70;;
63801;SDS011;49949;43.060;25.624;2022-12-10T10:10:59;5.95;;;2.05;;
63801;SDS011;49949;43.060;25.624;2022-12-10T10:13:30;4.57;;;2.05;;
63801;SDS011;49949;43.060;25.624;2022-12-10T10:16:17;5.18;;;2.00;;
63801;SDS011;49949;43.060;25.624;2022-12-10T10:19:18;39.15;;;3.10;;
63801;SDS011;49949;43.060;25.624;2022-12-10T10:21:49;5.47;;;1.95;;
63801;SDS011;49949;43.060;25.624;2022-12-10T10:24:17;7.60;;;2.40;;
63801;SDS011;49949;43.060;25.624;2022-12-10T10:26:45;5.45;;;2.08;;
63801;SDS011;49949;43.060;25.624;2022-12-10T10:29:12;10.02;;;2.45;;
63801;SDS011;49949;43.060;25.624;2022-12-10T10:31:41;3.10;;;2.03;;
63801;SDS011;49949;43.060;25.624;2022-12-10T10:34:15;144.48;;;8.00;;
63801;SDS011;49949;43.060;25.624;2022-12-10T10:36:43;9.00;;;2.17;;
63801;SDS011;49949;43.060;25.624;2022-12-10T10:41:41;20.73;;;2.42;;
63801;SDS011;49949;43.060;25.624;2022-12-10T10:44:27;7.07;;;2.00;;
63801;SDS011;49949;43.060;25.624;2022-12-10T10:46:58;5.20;;;2.15;;
63801;SDS011;49949;43.060;25.624;2022-12-10T10:51:50;4.15;;;1.40;;
63801;SDS011;49949;43.060;25.624;2022-12-10T10:54:38;3.83;;;1.60;;
63801;SDS011;49949;43.060;25.624;2022-12-10T10:59:52;4.47;;;1.75;;
63801;SDS011;49949;43.060;25.624;2022-12-10T11:02:29;6.20;;;2.17;;
63801;SDS011;49949;43.060;25.624;2022-12-10T11:05:04;2.97;;;1.50;;
63801;SDS011;49949;43.060;25.624;2022-12-10T11:07:34;3.55;;;1.50;;
63801;SDS011;49949;43.060;25.624;2022-12-10T11:10:03;8.68;;;1.70;;
63801;SDS011;49949;43.060;25.624;2022-12-10T11:13:03;5.95;;;1.58;;
63801;SDS011;49949;43.060;25.624;2022-12-10T11:18:00;8.60;;;1.63;;
63801;SDS011;49949;43.060;25.624;2022-12-10T11:20:50;5.47;;;1.42;;
63801;SDS011;49949;43.060;25.624;2022-12-10T11:23:31;3.78;;;1.20;;
63801;SDS011;49949;43.060;25.624;2022-12-10T11:34:15;3.03;;;1.30;;
63801;SDS011;49949;43.060;25.624;2022-12-10T11:42:47;2.67;;;1.10;;
63801;SDS011;49949;43.060;25.624;2022-12-10T11:45:22;3.92;;;1.50;;
63801;SDS011;49949;43.060;25.624;2022-12-10T11:54:28;3.60;;;1.30;;
63801;SDS011;49949;43.060;25.624;2022-12-10T11:57:19;3.85;;;1.75;;
63801;SDS011;49949;43.060;25.624;2022-12-10T12:00:21;10.95;;;1.48;;
63801;SDS011;49949;43.060;25.624;2022-12-10T12:05:27;2.42;;;1.35;;
63801;SDS011;49949;43.060;25.624;2022-12-10T12:18:36;3.92;;;1.70;;
63801;SDS011;49949;43.060;25.624;2022-12-10T12:21:07;8.95;;;1.50;;
63801;SDS011;49949;43.060;25.624;2022-12-10T12:23:52;3.00;;;1.48;;
63801;SDS011;49949;43.060;25.624;2022-12-10T12:35:47;3.35;;;1.05;;
63801;SDS011;49949;43.060;25.624;2022-12-10T12:43:52;2.13;;;0.90;;
63801;SDS011;49949;43.060;25.624;2022-12-10T12:46:38;3.55;;;1.13;;
63801;SDS011;49949;43.060;25.624;2022-12-10T12:49:24;3.97;;;1.15;;
63801;SDS011;49949;43.060;25.624;2022-12-10T12:51:54;6.80;;;1.40;;
63801;SDS011;49949;43.060;25.624;2022-12-10T12:54:21;3.90;;;1.40;;
63801;SDS011;49949;43.060;25.624;2022-12-10T13:04:47;6.35;;;1.70;;
63801;SDS011;49949;43.060;25.624;2022-12-10T13:23:00;5.40;;;1.63;;
63801;SDS011;49949;43.060;25.624;2022-12-10T13:36:27;2.55;;;1.95;;
63801;SDS011;49949;43.060;25.624;2022-12-10T13:41:30;6.22;;;2.00;;
63801;SDS011;49949;43.060;25.624;2022-12-10T13:44:31;3.83;;;1.80;;
63801;SDS011;49949;43.060;25.624;2022-12-10T13:52:24;2.97;;;1.48;;
63801;SDS011;49949;43.060;25.624;2022-12-10T14:00:51;9.85;;;2.15;;
63801;SDS011;49949;43.060;25.624;2022-12-10T14:06:32;3.42;;;1.70;;
63801;SDS011;49949;43.060;25.624;2022-12-10T14:11:49;7.65;;;1.45;;
63801;SDS011;49949;43.060;25.624;2022-12-10T14:14:37;5.70;;;1.80;;
63801;SDS011;49949;43.060;25.624;2022-12-10T14:17:09;6.85;;;1.70;;
63801;SDS011;49949;43.060;25.624;2022-12-10T14:19:36;5.20;;;1.70;;
63801;SDS011;49949;43.060;25.624;2022-12-10T14:22:06;6.38;;;1.40;;
63801;SDS011;49949;43.060;25.624;2022-12-10T14:24:36;6.57;;;1.85;;
63801;SDS011;49949;43.060;25.624;2022-12-10T14:29:36;5.28;;;2.33;;
63801;SDS011;49949;43.060;25.624;2022-12-10T14:32:02;9.43;;;2.45;;
63801;SDS011;49949;43.060;25.624;2022-12-10T14:34:28;4.97;;;1.98;;
63801;SDS011;49949;43.060;25.624;2022-12-10T14:36:58;4.45;;;1.95;;
63801;SDS011;49949;43.060;25.624;2022-12-10T14:39:29;9.15;;;3.28;;
63801;SDS011;49949;43.060;25.624;2022-12-10T14:41:57;10.40;;;1.73;;
63801;SDS011;49949;43.060;25.624;2022-12-10T14:44:26;6.72;;;2.30;;
63801;SDS011;49949;43.060;25.624;2022-12-10T14:47:13;9.13;;;2.30;;
63801;SDS011;49949;43.060;25.624;2022-12-10T14:49:41;4.53;;;2.17;;
63801;SDS011;49949;43.060;25.624;2022-12-10T14:52:10;7.88;;;2.22;;
63801;SDS011;49949;43.060;25.624;2022-12-10T14:54:37;10.00;;;2.53;;
63801;SDS011;49949;43.060;25.624;2022-12-10T14:57:23;9.25;;;2.70;;
63801;SDS011;49949;43.060;25.624;2022-12-10T14:59:59;7.57;;;2.08;;
63801;SDS011;49949;43.060;25.624;2022-12-10T15:02:33;8.80;;;2.80;;
63801;SDS011;49949;43.060;25.624;2022-12-10T15:05:02;19.42;;;4.40;;
63801;SDS011;49949;43.060;25.624;2022-12-10T15:07:31;10.18;;;2.08;;
63801;SDS011;49949;43.060;25.624;2022-12-10T15:10:02;5.57;;;2.45;;
63801;SDS011;49949;43.060;25.624;2022-12-10T15:12:33;10.40;;;2.35;;
63801;SDS011;49949;43.060;25.624;2022-12-10T15:15:13;8.95;;;2.38;;
63801;SDS011;49949;43.060;25.624;2022-12-10T15:17:40;9.90;;;2.25;;
63801;SDS011;49949;43.060;25.624;2022-12-10T15:20:18;10.35;;;2.10;;
63801;SDS011;49949;43.060;25.624;2022-12-10T15:22:46;6.38;;;2.25;;
63801;SDS011;49949;43.060;25.624;2022-12-10T15:25:40;11.10;;;2.30;;
63801;SDS011;49949;43.060;25.624;2022-12-10T15:28:19;11.23;;;2.50;;
63801;SDS011;49949;43.060;25.624;2022-12-10T15:30:50;4.05;;;1.80;;
63801;SDS011;49949;43.060;25.624;2022-12-10T15:33:21;12.43;;;2.20;;
63801;SDS011;49949;43.060;25.624;2022-12-10T15:35:53;4.38;;;2.10;;
63801;SDS011;49949;43.060;25.624;2022-12-10T15:38:22;7.50;;;2.38;;
63801;SDS011;49949;43.060;25.624;2022-12-10T15:40:48;7.07;;;2.75;;
63801;SDS011;49949;43.060;25.624;2022-12-10T15:45:50;6.22;;;2.10;;
63801;SDS011;49949;43.060;25.624;2022-12-10T15:48:16;6.97;;;2.28;;
63801;SDS011;49949;43.060;25.624;2022-12-10T15:50:42;7.20;;;2.95;;
63801;SDS011;49949;43.060;25.624;2022-12-10T15:53:10;15.77;;;3.25;;
63801;SDS011;49949;43.060;25.624;2022-12-10T15:55:37;6.20;;;2.20;;
63801;SDS011;49949;43.060;25.624;2022-12-10T15:58:05;8.68;;;2.00;;
63801;SDS011;49949;43.060;25.624;2022-12-10T16:03:02;10.05;;;2.10;;
63801;SDS011;49949;43.060;25.624;2022-12-10T16:05:31;5.03;;;1.88;;
63801;SDS011;49949;43.060;25.624;2022-12-10T16:07:59;7.53;;;1.90;;
63801;SDS011;49949;43.060;25.624;2022-12-10T16:10:31;3.78;;;1.80;;
63801;SDS011;49949;43.060;25.624;2022-12-10T16:15:25;7.60;;;1.83;;
63801;SDS011;49949;43.060;25.624;2022-12-10T16:17:53;9.43;;;2.08;;
63801;SDS011;49949;43.060;25.624;2022-12-10T16:20:25;13.80;;;2.53;;
63801;SDS011;49949;43.060;25.624;2022-12-10T16:22:55;7.07;;;1.63;;
63801;SDS011;49949;43.060;25.624;2022-12-10T16:25:23;7.45;;;1.92;;
63801;SDS011;49949;43.060;25.624;2022-12-10T16:27:50;8.48;;;2.00;;
63801;SDS011;49949;43.060;25.624;2022-12-10T16:30:17;2.83;;;1.70;;
63801;SDS011;49949;43.060;25.624;2022-12-10T16:32:53;6.22;;;1.70;;
63801;SDS011;49949;43.060;25.624;2022-12-10T16:35:20;6.60;;;2.10;;
63801;SDS011;49949;43.060;25.624;2022-12-10T16:37:46;6.50;;;1.73;;
63801;SDS011;49949;43.060;25.624;2022-12-10T16:40:19;5.85;;;1.63;;
63801;SDS011;49949;43.060;25.624;2022-12-10T16:42:47;11.48;;;1.98;;
63801;SDS011;49949;43.060;25.624;2022-12-10T16:45:17;9.57;;;2.13;;
63801;SDS011;49949;43.060;25.624;2022-12-10T16:47:49;9.15;;;2.28;;
63801;SDS011;49949;43.060;25.624;2022-12-10T16:50:16;11.65;;;2.78;;
63801;SDS011;49949;43.060;25.624;2022-12-10T16:52:42;11.00;;;2.20;;
63801;SDS011;49949;43.060;25.624;2022-12-10T16:55:12;6.75;;;1.25;;
63801;SDS011;49949;43.060;25.624;2022-12-10T16:57:41;9.57;;;2.33;;
63801;SDS011;49949;43.060;25.624;2022-12-10T17:00:08;9.40;;;2.58;;
63801;SDS011;49949;43.060;25.624;2022-12-10T17:02:34;8.77;;;2.67;;
63801;SDS011;49949;43.060;25.624;2022-12-10T17:05:00;6.90;;;1.85;;
63801;SDS011;49949;43.060;25.624;2022-12-10T17:07:26;24.75;;;5.25;;
63801;SDS011;49949;43.060;25.624;2022-12-10T17:09:51;9.60;;;2.80;;
63801;SDS011;49949;43.060;25.624;2022-12-10T17:12:17;7.63;;;2.30;;